Time;durP1;ratioP1;P1;durP2;ratioP2;P2;SDS_P1;SDS_P2;PMS_P1;PMS_P2;Temp;Humidity;BMP_temperature;BMP_pressure;BME280_temperature;BME280_humidity;BME280_pressure;Samples;Min_cycle;Max_cycle;Signal;HPM_P1;HPM_P2
2023/08/07 00:00:26;;;;;;;2.67;1.03;;;21.90;99.30;;;;;;5043440;28;20530;-62
2023/08/07 00:02:53;;;;;;;2.80;1.63;;;21.90;99.20;;;;;;5043761;28;20930;-63
2023/08/07 00:05:20;;;;;;;0.83;0.80;;;21.90;99.50;;;;;;5032170;28;20469;-59
2023/08/07 00:07:48;;;;;;;3.60;0.93;;;21.80;99.20;;;;;;5040292;28;20479;-61
2023/08/07 00:10:15;;;;;;;1.20;1.20;;;21.80;99.40;;;;;;5031506;28;20519;-63
2023/08/07 00:12:42;;;;;;;1.50;0.90;;;21.80;99.40;;;;;;5035187;28;20540;-63
2023/08/07 00:15:10;;;;;;;2.13;1.20;;;21.80;99.30;;;;;;5042035;28;20445;-60
2023/08/07 00:17:37;;;;;;;1.10;1.00;;;21.80;99.20;;;;;;5043589;28;20920;-61
2023/08/07 00:20:06;;;;;;;0.80;0.80;;;21.80;99.10;;;;;;5041853;28;20496;-62
2023/08/07 00:22:32;;;;;;;1.00;1.00;;;21.80;99.20;;;;;;5039980;28;20534;-62
2023/08/07 00:25:01;;;;;;;2.40;1.67;;;21.80;99.40;;;;;;5037053;28;20485;-60
2023/08/07 00:27:28;;;;;;;1.37;1.13;;;21.80;99.40;;;;;;5043491;28;20881;-60
2023/08/07 00:29:55;;;;;;;1.73;0.93;;;21.80;99.20;;;;;;5043014;28;20492;-59
2023/08/07 00:32:21;;;;;;;2.00;1.03;;;21.80;99.30;;;;;;5031875;28;20469;-62
2023/08/07 00:34:48;;;;;;;1.77;1.10;;;21.80;99.30;;;;;;5038335;28;20480;-62
2023/08/07 00:37:15;;;;;;;1.37;1.03;;;21.80;99.30;;;;;;5042471;28;20472;-61
2023/08/07 00:39:42;;;;;;;0.90;0.90;;;21.80;99.40;;;;;;5043064;28;20491;-60
2023/08/07 00:42:10;;;;;;;3.20;1.10;;;21.80;99.40;;;;;;5040494;28;20508;-62
2023/08/07 00:44:37;;;;;;;2.60;1.47;;;21.80;99.30;;;;;;5039655;28;20441;-60
2023/08/07 00:47:05;;;;;;;0.90;0.90;;;21.70;99.30;;;;;;5040632;28;20479;-60
2023/08/07 00:49:32;;;;;;;1.60;0.93;;;21.70;99.30;;;;;;5042476;28;20504;-60
2023/08/07 00:51:59;;;;;;;1.47;1.07;;;21.70;99.30;;;;;;5042478;28;20807;-62
2023/08/07 00:54:26;;;;;;;1.30;1.20;;;21.70;99.20;;;;;;5039511;28;20507;-60
2023/08/07 00:56:53;;;;;;;7.10;1.43;;;21.70;99.30;;;;;;5039580;28;20479;-62
2023/08/07 00:59:22;;;;;;;2.00;1.50;;;21.70;99.50;;;;;;5039131;28;20500;-61
2023/08/07 01:01:50;;;;;;;1.93;1.20;;;21.70;99.30;;;;;;5039343;28;20513;-60
2023/08/07 01:04:17;;;;;;;2.73;1.13;;;21.70;99.50;;;;;;5042143;28;20480;-60
2023/08/07 01:06:44;;;;;;;0.90;0.90;;;21.70;99.30;;;;;;5042962;28;20482;-60
2023/08/07 01:09:10;;;;;;;1.20;1.10;;;21.70;99.40;;;;;;5040872;28;20451;-62
2023/08/07 01:11:44;;;;;;;1.80;1.40;;;21.70;99.50;;;;;;5039278;28;20479;-62
2023/08/07 01:14:19;;;;;;;1.97;1.20;;;21.70;99.50;;;;;;5039943;28;20476;-62
2023/08/07 01:16:52;;;;;;;1.10;0.93;;;21.70;99.50;;;;;;5039901;28;20451;-62
2023/08/07 01:19:24;;;;;;;1.60;1.03;;;21.70;99.50;;;;;;5039687;28;20472;-60
2023/08/07 01:22:05;;;;;;;2.20;1.40;;;21.70;99.80;;;;;;5039166;28;20487;-62
2023/08/07 01:24:32;;;;;;;1.63;1.03;;;21.70;99.60;;;;;;5032643;28;20446;-60
2023/08/07 01:27:08;;;;;;;3.03;1.27;;;21.70;99.60;;;;;;5039315;28;20456;-60
2023/08/07 01:29:38;;;;;;;2.30;1.30;;;21.60;99.70;;;;;;5042558;28;20487;-61
2023/08/07 01:32:08;;;;;;;1.57;1.10;;;21.60;99.60;;;;;;5037549;28;20487;-60
2023/08/07 01:34:37;;;;;;;1.10;1.10;;;21.60;99.80;;;;;;5039241;28;20446;-62
2023/08/07 01:37:08;;;;;;;1.27;1.10;;;21.60;99.70;;;;;;5034723;28;20480;-59
2023/08/07 01:39:37;;;;;;;1.10;1.00;;;21.60;99.70;;;;;;5039159;28;20964;-60
2023/08/07 01:42:05;;;;;;;1.83;1.27;;;21.60;99.80;;;;;;5039491;28;20581;-62
2023/08/07 01:44:32;;;;;;;0.77;0.70;;;21.60;99.80;;;;;;5042438;28;20446;-61
2023/08/07 01:46:59;;;;;;;1.27;1.10;;;21.60;99.80;;;;;;5041737;28;20483;-60
2023/08/07 01:49:26;;;;;;;3.33;1.07;;;21.60;99.80;;;;;;5037750;28;20504;-60
2023/08/07 01:51:52;;;;;;;0.87;0.80;;;21.60;99.80;;;;;;5038953;28;20469;-63
2023/08/07 01:54:21;;;;;;;0.80;0.80;;;21.60;99.80;;;;;;5041832;28;20547;-63
2023/08/07 01:56:48;;;;;;;0.80;0.80;;;21.60;99.90;;;;;;5042332;28;20535;-61
2023/08/07 01:59:14;;;;;;;1.00;0.83;;;21.60;99.80;;;;;;5040248;28;20478;-61
2023/08/07 02:01:41;;;;;;;2.73;1.00;;;21.60;99.70;;;;;;5042477;28;21015;-61
2023/08/07 02:04:08;;;;;;;2.13;1.10;;;21.60;99.80;;;;;;5041735;28;20484;-61
2023/08/07 02:06:35;;;;;;;2.23;1.30;;;21.60;99.90;;;;;;5046025;28;20471;-61
2023/08/07 02:09:02;;;;;;;1.07;1.07;;;21.60;99.90;;;;;;5045341;28;20519;-61
2023/08/07 02:11:30;;;;;;;1.43;0.97;;;21.60;99.90;;;;;;5042280;28;20967;-62
2023/08/07 02:13:57;;;;;;;1.30;1.20;;;21.60;99.80;;;;;;5042476;28;20473;-61
2023/08/07 02:16:24;;;;;;;1.27;1.17;;;21.60;99.80;;;;;;5045622;28;20486;-60
2023/08/07 02:18:50;;;;;;;1.10;1.10;;;21.60;99.80;;;;;;5045819;28;20472;-60
2023/08/07 02:21:17;;;;;;;2.60;1.00;;;21.60;99.80;;;;;;5037099;28;20504;-60
2023/08/07 02:23:44;;;;;;;0.80;0.80;;;21.60;99.70;;;;;;5045638;28;20510;-60
2023/08/07 02:26:11;;;;;;;4.00;1.73;;;21.60;99.80;;;;;;5044065;28;20476;-61
2023/08/07 02:28:39;;;;;;;1.43;1.33;;;21.60;99.70;;;;;;5042154;28;20477;-63
2023/08/07 02:31:06;;;;;;;1.90;1.40;;;21.60;99.80;;;;;;5042684;28;20890;-61
2023/08/07 02:33:32;;;;;;;0.83;0.83;;;21.60;99.80;;;;;;5045520;28;20448;-63
2023/08/07 02:35:59;;;;;;;1.60;1.03;;;21.50;99.90;;;;;;5045531;28;20513;-61
2023/08/07 02:38:26;;;;;;;1.20;1.10;;;21.50;99.90;;;;;;5035024;28;20259;-61
2023/08/07 02:40:53;;;;;;;2.83;2.60;;;21.50;99.90;;;;;;5041665;28;21039;-62
2023/08/07 02:43:20;;;;;;;1.20;1.10;;;21.50;99.90;;;;;;5044442;28;20559;-60
2023/08/07 02:45:48;;;;;;;1.17;1.00;;;21.50;99.80;;;;;;5038962;28;20484;-61
2023/08/07 02:48:15;;;;;;;1.27;1.23;;;21.50;99.90;;;;;;5043727;28;20478;-62
2023/08/07 02:50:42;;;;;;;1.27;1.17;;;21.50;99.90;;;;;;5044953;28;20472;-63
2023/08/07 02:53:08;;;;;;;3.10;2.17;;;21.50;99.90;;;;;;5043659;28;20498;-62
2023/08/07 02:55:35;;;;;;;1.17;1.07;;;21.50;99.90;;;;;;5023442;28;20485;-63
2023/08/07 02:58:02;;;;;;;1.23;1.10;;;21.50;99.90;;;;;;5038481;28;20480;-62
2023/08/07 03:00:29;;;;;;;3.60;1.07;;;21.50;99.90;;;;;;5044677;28;20491;-60
2023/08/07 03:02:57;;;;;;;2.43;1.00;;;21.50;99.90;;;;;;5044930;28;20510;-62
2023/08/07 03:05:24;;;;;;;3.30;1.30;;;21.50;99.90;;;;;;5041660;28;20481;-61
2023/08/07 03:07:51;;;;;;;1.17;1.00;;;21.50;99.90;;;;;;5041637;28;20480;-61
2023/08/07 03:10:19;;;;;;;1.20;1.10;;;21.50;99.90;;;;;;5042377;28;20465;-60
2023/08/07 03:12:46;;;;;;;2.77;0.93;;;21.50;99.90;;;;;;5044101;28;20443;-63
2023/08/07 03:15:12;;;;;;;1.13;1.03;;;21.50;99.90;;;;;;5043142;28;20997;-60
2023/08/07 03:17:39;;;;;;;1.10;0.97;;;21.50;99.90;;;;;;5041343;28;20905;-60
2023/08/07 03:20:09;;;;;;;1.43;1.43;;;21.50;99.90;;;;;;5041531;28;20919;-59
2023/08/07 03:22:36;;;;;;;1.70;1.03;;;21.50;99.90;;;;;;5044476;28;20559;-62
2023/08/07 03:25:03;;;;;;;1.17;1.13;;;21.40;99.90;;;;;;5044387;28;20868;-62
2023/08/07 03:27:30;;;;;;;1.70;1.10;;;21.50;99.90;;;;;;5036257;28;20479;-60
2023/08/07 03:29:57;;;;;;;1.00;0.80;;;21.50;99.90;;;;;;5044351;28;20499;-61
2023/08/07 03:32:24;;;;;;;1.40;1.10;;;21.40;99.90;;;;;;5041246;28;20953;-62
2023/08/07 03:34:51;;;;;;;1.63;1.03;;;21.40;99.90;;;;;;5041033;28;20473;-61
2023/08/07 03:37:19;;;;;;;1.90;1.70;;;21.40;99.90;;;;;;5042941;28;20465;-62
2023/08/07 03:39:47;;;;;;;4.87;1.40;;;21.40;99.90;;;;;;5044130;28;20488;-62
2023/08/07 03:42:15;;;;;;;0.70;0.70;;;21.40;99.90;;;;;;5042266;28;20486;-62
2023/08/07 03:44:42;;;;;;;1.00;0.90;;;21.40;99.90;;;;;;5038435;28;20444;-63
2023/08/07 03:47:09;;;;;;;2.20;1.33;;;21.40;99.90;;;;;;5043227;28;20471;-62
2023/08/07 03:49:36;;;;;;;1.20;1.10;;;21.40;99.90;;;;;;5040578;28;20488;-60
2023/08/07 03:52:03;;;;;;;3.03;1.17;;;21.40;99.90;;;;;;5034487;28;21037;-61
2023/08/07 03:54:31;;;;;;;1.20;1.10;;;21.40;99.90;;;;;;5032846;28;20956;-62
2023/08/07 03:56:58;;;;;;;1.40;1.17;;;21.40;99.90;;;;;;5040575;28;20526;-62
2023/08/07 03:59:25;;;;;;;1.47;1.37;;;21.40;99.90;;;;;;5041659;28;20566;-60
2023/08/07 04:01:52;;;;;;;2.03;1.00;;;21.40;99.90;;;;;;5035928;28;20488;-60
2023/08/07 04:04:19;;;;;;;2.10;1.23;;;21.40;99.90;;;;;;5042406;28;20995;-61
2023/08/07 04:06:46;;;;;;;1.97;1.77;;;21.40;99.90;;;;;;5043801;28;20804;-62
2023/08/07 04:09:12;;;;;;;2.33;1.10;;;21.40;99.90;;;;;;5042242;28;20436;-62
2023/08/07 04:11:41;;;;;;;1.90;1.27;;;21.40;99.90;;;;;;5040081;28;20474;-62
2023/08/07 04:14:08;;;;;;;3.20;0.83;;;21.40;99.90;;;;;;5040702;28;20440;-61
2023/08/07 04:16:36;;;;;;;1.50;1.20;;;21.40;99.90;;;;;;5042519;28;20852;-60
2023/08/07 04:19:03;;;;;;;4.33;2.03;;;21.40;99.90;;;;;;5043418;28;20480;-60
2023/08/07 04:21:31;;;;;;;12.83;3.10;;;21.40;99.90;;;;;;5031916;28;20442;-62
2023/08/07 04:23:59;;;;;;;9.10;3.60;;;21.40;99.90;;;;;;5039075;28;20527;-60
2023/08/07 04:26:26;;;;;;;7.43;3.37;;;21.40;99.90;;;;;;5043043;28;20866;-62
2023/08/07 04:28:55;;;;;;;15.77;3.63;;;21.40;99.90;;;;;;5043313;28;20472;-63
2023/08/07 04:31:22;;;;;;;13.93;3.80;;;21.40;99.90;;;;;;5039921;28;20492;-64
2023/08/07 04:33:49;;;;;;;7.70;3.23;;;21.40;99.90;;;;;;5035957;28;20537;-60
2023/08/07 04:36:16;;;;;;;13.23;5.23;;;21.40;99.90;;;;;;5040891;28;20883;-58
2023/08/07 04:38:43;;;;;;;12.67;4.93;;;21.40;99.90;;;;;;5039826;28;20878;-58
2023/08/07 04:41:10;;;;;;;8.77;2.87;;;21.40;99.90;;;;;;5040008;28;20900;-58
2023/08/07 04:43:37;;;;;;;9.33;3.03;;;21.40;99.90;;;;;;5042987;28;20483;-59
2023/08/07 04:46:05;;;;;;;7.30;2.60;;;21.50;99.90;;;;;;5043196;28;20467;-57
2023/08/07 04:48:32;;;;;;;6.37;2.83;;;21.50;99.90;;;;;;5031657;28;20473;-56
2023/08/07 04:50:59;;;;;;;5.37;2.27;;;21.50;99.90;;;;;;5039352;28;20464;-60
2023/08/07 04:53:26;;;;;;;8.90;3.27;;;21.50;99.90;;;;;;5042389;28;20519;-58
2023/08/07 04:55:53;;;;;;;5.00;2.60;;;21.50;99.90;;;;;;5043115;28;20745;-60
2023/08/07 04:58:20;;;;;;;6.07;3.07;;;21.50;99.90;;;;;;5040808;28;20532;-61
2023/08/07 05:00:47;;;;;;;4.10;2.10;;;21.50;99.90;;;;;;5039492;28;20499;-60
2023/08/07 05:03:18;;;;;;;8.20;3.33;;;21.50;99.90;;;;;;5040542;28;20485;-60
2023/08/07 05:05:45;;;;;;;6.43;2.03;;;21.40;99.90;;;;;;5042852;28;20444;-57
2023/08/07 05:08:11;;;;;;;5.83;3.00;;;21.40;99.90;;;;;;5041833;28;20802;-59
2023/08/07 05:10:38;;;;;;;5.57;2.67;;;21.40;99.90;;;;;;5039206;28;21006;-55
2023/08/07 05:13:05;;;;;;;6.60;2.57;;;21.40;99.90;;;;;;5039487;28;20858;-59
2023/08/07 05:15:32;;;;;;;5.80;2.30;;;21.40;99.90;;;;;;5031395;28;20869;-59
2023/08/07 05:17:59;;;;;;;2.17;2.07;;;21.40;99.90;;;;;;5039322;28;20469;-60
2023/08/07 05:20:27;;;;;;;5.03;2.47;;;21.40;99.90;;;;;;5041705;28;20504;-60
2023/08/07 05:22:55;;;;;;;3.63;1.60;;;21.40;99.90;;;;;;5042490;28;20512;-58
2023/08/07 05:25:22;;;;;;;2.07;1.47;;;21.40;99.90;;;;;;5040472;28;20940;-58
2023/08/07 05:27:49;;;;;;;2.30;1.60;;;21.40;99.90;;;;;;5039153;28;20473;-56
2023/08/07 05:30:16;;;;;;;6.37;2.80;;;21.40;99.90;;;;;;5040129;28;20496;-58
2023/08/07 05:32:43;;;;;;;7.90;2.17;;;21.40;99.90;;;;;;5042749;28;20856;-59
2023/08/07 05:35:10;;;;;;;1.80;1.40;;;21.40;99.90;;;;;;5043865;28;20436;-59
2023/08/07 05:37:38;;;;;;;6.80;1.23;;;21.40;99.90;;;;;;5043096;28;20865;-59
2023/08/07 05:40:07;;;;;;;2.97;1.90;;;21.40;99.90;;;;;;5042818;28;20485;-60
2023/08/07 05:42:34;;;;;;;1.70;1.53;;;21.40;99.90;;;;;;5035077;28;20448;-57
2023/08/07 05:45:02;;;;;;;4.00;1.93;;;21.40;99.90;;;;;;5043101;28;20449;-60
2023/08/07 05:47:28;;;;;;;1.27;1.20;;;21.40;99.90;;;;;;5045778;28;20940;-60
2023/08/07 05:49:55;;;;;;;2.63;1.60;;;21.40;99.90;;;;;;5046052;28;20538;-59
2023/08/07 05:52:22;;;;;;;1.63;1.53;;;21.40;99.90;;;;;;5044157;28;20475;-60
2023/08/07 05:54:50;;;;;;;2.90;2.10;;;21.40;99.90;;;;;;5042802;28;20495;-61
2023/08/07 05:57:19;;;;;;;3.13;1.53;;;21.40;99.90;;;;;;5044148;28;20472;-59
2023/08/07 05:59:46;;;;;;;1.97;1.73;;;21.40;99.90;;;;;;5045979;28;20487;-59
2023/08/07 06:02:12;;;;;;;2.07;1.97;;;21.40;99.90;;;;;;5045457;28;20846;-59
2023/08/07 06:04:40;;;;;;;2.60;2.23;;;21.30;99.90;;;;;;5042794;28;20926;-61
2023/08/07 06:07:07;;;;;;;2.10;1.90;;;21.40;99.90;;;;;;5042564;28;20448;-59
2023/08/07 06:09:34;;;;;;;2.10;1.90;;;21.30;99.90;;;;;;5034549;28;20467;-57
2023/08/07 06:12:03;;;;;;;1.80;1.70;;;21.30;99.90;;;;;;5042363;28;20472;-58
2023/08/07 06:14:30;;;;;;;2.30;1.90;;;21.30;99.90;;;;;;5045459;28;20486;-59
2023/08/07 06:16:57;;;;;;;2.00;1.60;;;21.30;99.90;;;;;;5045846;28;20440;-59
2023/08/07 06:19:27;;;;;;;4.27;2.30;;;21.30;99.90;;;;;;5043400;28;20974;-58
2023/08/07 06:21:53;;;;;;;3.13;2.50;;;21.30;99.90;;;;;;5042078;28;20440;-59
2023/08/07 06:24:20;;;;;;;2.10;1.63;;;21.30;99.90;;;;;;5043813;28;20487;-58
2023/08/07 06:26:47;;;;;;;2.20;1.80;;;21.30;99.90;;;;;;5045684;28;20444;-59
2023/08/07 06:29:16;;;;;;;3.30;1.67;;;21.30;99.90;;;;;;5044903;28;20440;-59
2023/08/07 06:31:43;;;;;;;2.70;1.60;;;21.30;99.90;;;;;;5042132;28;20536;-58
2023/08/07 06:34:10;;;;;;;2.80;1.43;;;21.30;99.90;;;;;;5042145;28;20480;-60
2023/08/07 06:36:37;;;;;;;6.70;1.50;;;21.30;99.90;;;;;;5045544;28;20432;-57
2023/08/07 06:39:04;;;;;;;2.10;1.87;;;21.30;99.90;;;;;;5045364;28;20468;-60
2023/08/07 06:41:31;;;;;;;3.23;2.40;;;21.30;99.90;;;;;;5042311;28;20476;-57
2023/08/07 06:43:58;;;;;;;2.50;1.40;;;21.30;99.90;;;;;;5041817;28;20852;-59
2023/08/07 06:46:26;;;;;;;2.00;1.50;;;21.30;99.90;;;;;;5043075;28;20476;-56
2023/08/07 06:48:53;;;;;;;2.23;1.70;;;21.30;99.90;;;;;;5045138;28;20494;-59
2023/08/07 06:51:20;;;;;;;1.77;1.67;;;21.30;99.90;;;;;;5043463;28;20831;-59
2023/08/07 06:53:47;;;;;;;1.97;1.70;;;21.30;99.90;;;;;;5047130;28;20451;-60
2023/08/07 06:56:14;;;;;;;2.80;1.50;;;21.30;99.90;;;;;;5044475;28;20479;-59
2023/08/07 06:58:41;;;;;;;2.30;1.10;;;21.30;99.90;;;;;;5041653;28;20495;-58
2023/08/07 07:01:08;;;;;;;3.40;1.80;;;21.30;99.90;;;;;;5041398;28;20497;-59
2023/08/07 07:03:36;;;;;;;2.03;1.93;;;21.30;99.90;;;;;;5044761;28;20913;-60
2023/08/07 07:06:03;;;;;;;3.47;1.77;;;21.20;99.90;;;;;;5044964;28;20883;-58
2023/08/07 07:08:30;;;;;;;2.03;1.93;;;21.30;99.90;;;;;;5042103;28;20529;-57
2023/08/07 07:10:58;;;;;;;3.77;1.27;;;21.30;99.90;;;;;;5041116;28;20603;-60
2023/08/07 07:13:25;;;;;;;1.83;1.60;;;21.20;99.90;;;;;;5043340;28;20445;-58
2023/08/07 07:15:54;;;;;;;6.93;1.83;;;21.30;99.90;;;;;;5044663;28;20436;-60
2023/08/07 07:18:21;;;;;;;1.33;1.23;;;21.30;99.90;;;;;;5043233;28;20455;-55
2023/08/07 07:20:57;;;;;;;1.57;1.40;;;21.30;99.90;;;;;;5040980;28;20491;-60
2023/08/07 07:23:24;;;;;;;2.40;2.23;;;21.30;99.90;;;;;;5042870;28;20556;-58
2023/08/07 07:25:51;;;;;;;4.10;1.50;;;21.20;99.90;;;;;;5044582;28;20468;-59
2023/08/07 07:28:18;;;;;;;1.57;1.47;;;21.20;99.90;;;;;;5043479;28;20491;-57
2023/08/07 07:30:45;;;;;;;6.10;1.70;;;21.20;99.90;;;;;;5040782;28;20519;-60
2023/08/07 07:33:13;;;;;;;3.27;1.80;;;21.20;99.90;;;;;;5040943;28;20556;-58
2023/08/07 07:35:40;;;;;;;2.60;1.50;;;21.20;99.90;;;;;;5044353;28;20448;-59
2023/08/07 07:38:10;;;;;;;1.63;1.43;;;21.20;99.90;;;;;;5044368;28;20463;-59
2023/08/07 07:40:37;;;;;;;2.13;1.40;;;21.20;99.90;;;;;;5040571;28;20460;-59
2023/08/07 07:43:04;;;;;;;3.33;1.87;;;21.20;99.90;;;;;;5040757;28;20860;-60
2023/08/07 07:45:33;;;;;;;1.90;1.30;;;21.20;99.90;;;;;;5043327;28;20465;-60
2023/08/07 07:48:00;;;;;;;1.70;1.60;;;21.20;99.90;;;;;;5044083;28;20436;-57
2023/08/07 07:50:27;;;;;;;1.50;1.40;;;21.20;99.90;;;;;;5041628;28;20485;-59
2023/08/07 07:52:54;;;;;;;1.50;1.40;;;21.20;99.90;;;;;;5040577;28;20483;-58
2023/08/07 07:55:22;;;;;;;1.90;1.70;;;21.20;99.90;;;;;;5041938;28;20469;-60
2023/08/07 07:57:49;;;;;;;1.30;1.30;;;21.20;99.90;;;;;;5044041;28;20478;-61
2023/08/07 08:00:18;;;;;;;2.33;1.10;;;21.20;99.90;;;;;;5042908;28;20819;-61
2023/08/07 08:02:45;;;;;;;1.90;1.40;;;21.20;99.90;;;;;;5040464;28;20472;-60
2023/08/07 08:05:12;;;;;;;1.20;1.20;;;21.20;99.90;;;;;;5040391;28;20516;-61
2023/08/07 08:07:40;;;;;;;1.83;1.40;;;21.20;99.90;;;;;;5043815;28;20875;-60
2023/08/07 08:10:08;;;;;;;2.30;1.60;;;21.20;99.90;;;;;;5043458;28;20471;-59
2023/08/07 08:12:36;;;;;;;1.60;1.20;;;21.20;99.90;;;;;;5040492;28;20437;-61
2023/08/07 08:15:04;;;;;;;2.40;1.60;;;21.20;99.90;;;;;;5040229;28;20469;-61
2023/08/07 08:17:30;;;;;;;1.73;1.60;;;21.20;99.90;;;;;;5042661;28;20975;-60
2023/08/07 08:19:57;;;;;;;3.93;1.83;;;21.20;99.90;;;;;;5043381;28;20456;-60
2023/08/07 08:22:25;;;;;;;2.30;1.30;;;21.20;99.90;;;;;;5041794;28;20440;-61
2023/08/07 08:24:51;;;;;;;2.07;1.63;;;21.20;99.90;;;;;;5040086;28;20477;-61
2023/08/07 08:27:18;;;;;;;1.63;1.53;;;21.20;99.90;;;;;;5040618;28;20529;-59
2023/08/07 08:29:46;;;;;;;4.27;1.30;;;21.20;99.90;;;;;;5043231;28;20518;-60
2023/08/07 08:32:13;;;;;;;4.50;1.90;;;21.10;99.90;;;;;;5042924;28;20887;-61
2023/08/07 08:34:40;;;;;;;2.57;1.90;;;21.20;99.90;;;;;;5039932;28;20869;-61
2023/08/07 08:37:08;;;;;;;1.30;1.17;;;21.10;99.90;;;;;;5039934;28;20472;-59
2023/08/07 08:39:34;;;;;;;2.63;1.60;;;21.20;99.90;;;;;;5042536;28;20469;-60
2023/08/07 08:42:02;;;;;;;1.50;1.40;;;21.10;99.90;;;;;;5043055;28;20436;-60
2023/08/07 08:44:32;;;;;;;1.47;1.20;;;21.10;99.90;;;;;;5040948;28;20519;-59
2023/08/07 08:47:01;;;;;;;2.30;1.87;;;21.10;99.90;;;;;;5039718;28;20975;-59
2023/08/07 08:49:33;;;;;;;1.63;1.53;;;21.10;99.90;;;;;;5041712;28;20500;-62
2023/08/07 08:52:01;;;;;;;3.70;1.83;;;21.10;99.90;;;;;;5042950;28;20471;-63
2023/08/07 08:54:28;;;;;;;4.07;2.07;;;21.10;99.90;;;;;;5041103;28;20441;-61
2023/08/07 08:56:56;;;;;;;1.37;1.27;;;21.10;99.90;;;;;;5039709;28;20461;-61
2023/08/07 08:59:23;;;;;;;1.20;1.10;;;21.10;99.90;;;;;;5040659;28;20897;-62
2023/08/07 09:01:53;;;;;;;3.63;1.97;;;21.10;99.90;;;;;;5042877;28;20463;-60
2023/08/07 09:04:21;;;;;;;2.00;1.20;;;21.10;99.90;;;;;;5042063;28;20486;-60
2023/08/07 09:06:49;;;;;;;1.53;1.33;;;21.10;99.90;;;;;;5039592;28;20697;-59
2023/08/07 09:09:17;;;;;;;2.77;1.17;;;21.10;99.90;;;;;;5038870;28;20932;-60
2023/08/07 09:11:46;;;;;;;1.43;1.27;;;21.10;99.90;;;;;;5042756;28;20827;-60
2023/08/07 09:14:17;;;;;;;2.77;1.60;;;21.10;99.90;;;;;;5042899;28;20432;-60
2023/08/07 09:16:45;;;;;;;1.53;1.37;;;21.10;99.90;;;;;;5031943;28;20853;-58
2023/08/07 09:19:13;;;;;;;3.40;1.53;;;21.10;99.90;;;;;;5039378;28;20467;-60
2023/08/07 09:21:42;;;;;;;7.80;1.73;;;21.10;99.90;;;;;;5039256;28;20473;-60
2023/08/07 09:24:09;;;;;;;1.33;1.20;;;21.10;99.90;;;;;;5039370;28;20829;-60
2023/08/07 09:26:36;;;;;;;1.27;1.20;;;21.10;99.90;;;;;;5042051;28;20444;-60
2023/08/07 09:29:03;;;;;;;1.50;1.23;;;21.10;99.90;;;;;;5042604;28;20879;-59
2023/08/07 09:31:32;;;;;;;1.53;1.30;;;21.10;99.90;;;;;;5040319;28;20440;-61
2023/08/07 09:34:04;;;;;;;1.20;1.10;;;21.10;99.90;;;;;;5039212;28;20437;-61
2023/08/07 09:36:32;;;;;;;1.63;1.53;;;21.10;99.90;;;;;;5041333;28;20451;-60
2023/08/07 09:39:03;;;;;;;1.60;1.50;;;21.10;99.90;;;;;;5042745;28;20436;-60
2023/08/07 09:41:31;;;;;;;1.30;1.13;;;21.10;99.90;;;;;;5040423;28;20476;-60
2023/08/07 09:43:59;;;;;;;5.90;1.50;;;21.10;99.90;;;;;;5039062;28;20443;-61
2023/08/07 09:46:27;;;;;;;6.20;1.80;;;21.10;99.90;;;;;;5040546;28;20488;-60
2023/08/07 09:48:59;;;;;;;2.73;1.83;;;21.10;99.90;;;;;;5042554;28;20790;-60
2023/08/07 09:51:25;;;;;;;3.60;2.30;;;21.10;99.90;;;;;;5040999;28;20480;-59
2023/08/07 09:53:52;;;;;;;2.50;1.00;;;21.10;99.90;;;;;;5039234;28;20473;-61
2023/08/07 09:56:21;;;;;;;1.93;1.70;;;21.10;99.90;;;;;;5039329;28;20882;-60
2023/08/07 09:58:49;;;;;;;1.20;1.10;;;21.10;99.90;;;;;;5042659;28;20533;-60
2023/08/07 10:01:17;;;;;;;2.70;1.37;;;21.10;99.90;;;;;;5042022;28;20460;-60
2023/08/07 10:03:44;;;;;;;1.53;1.43;;;21.10;99.90;;;;;;5031082;28;20472;-61
2023/08/07 10:06:13;;;;;;;2.77;1.20;;;21.10;99.90;;;;;;5039043;28;20477;-60
2023/08/07 10:08:42;;;;;;;1.93;1.30;;;21.10;99.90;;;;;;5041970;28;20812;-60
2023/08/07 10:11:10;;;;;;;1.57;1.47;;;21.10;99.90;;;;;;5042125;28;20521;-60
2023/08/07 10:13:39;;;;;;;1.40;1.30;;;21.10;99.90;;;;;;5039455;28;20455;-61
2023/08/07 10:16:06;;;;;;;1.43;1.20;;;21.10;99.90;;;;;;5038735;28;20476;-59
2023/08/07 10:18:33;;;;;;;2.07;1.07;;;21.10;99.90;;;;;;5040906;28;20441;-59
2023/08/07 10:21:01;;;;;;;1.10;1.10;;;21.10;99.90;;;;;;5041965;28;20484;-60
2023/08/07 10:23:28;;;;;;;1.53;1.30;;;21.10;99.90;;;;;;5044148;28;20497;-59
2023/08/07 10:25:57;;;;;;;1.30;1.13;;;21.10;99.90;;;;;;5042360;28;20921;-59
2023/08/07 10:28:25;;;;;;;1.20;1.20;;;21.10;99.90;;;;;;5043186;28;20473;-61
2023/08/07 10:30:54;;;;;;;2.70;1.47;;;21.10;99.90;;;;;;5045476;28;20492;-60
2023/08/07 10:33:21;;;;;;;2.53;1.63;;;21.10;99.90;;;;;;5045023;28;20476;-59
2023/08/07 10:35:49;;;;;;;1.83;1.20;;;21.10;99.90;;;;;;5042145;28;20465;-60
2023/08/07 10:38:16;;;;;;;1.37;1.37;;;21.10;99.90;;;;;;5042088;28;20445;-59
2023/08/07 10:41:03;;;;;;;1.93;1.60;;;21.10;99.90;;;;;;5033852;28;20496;-61
2023/08/07 10:43:31;;;;;;;2.00;1.63;;;21.10;99.90;;;;;;5043605;28;20859;-60
2023/08/07 10:46:05;;;;;;;1.80;1.70;;;21.10;99.90;;;;;;5045261;28;20983;-60
2023/08/07 10:48:39;;;;;;;1.40;1.30;;;21.10;99.90;;;;;;5043656;28;20810;-60
2023/08/07 10:51:06;;;;;;;2.87;1.23;;;21.10;99.90;;;;;;5041572;28;21019;-60
2023/08/07 10:53:35;;;;;;;1.43;1.33;;;21.10;99.90;;;;;;5043782;28;20482;-58
2023/08/07 10:56:03;;;;;;;2.97;1.70;;;21.10;99.90;;;;;;5045244;28;20467;-60
2023/08/07 10:58:32;;;;;;;4.10;1.50;;;21.10;99.90;;;;;;5043464;28;20907;-59
2023/08/07 11:01:23;;;;;;;2.07;1.87;;;21.10;99.90;;;;;;5072816;22;20489;-62
2023/08/07 11:03:52;;;;;;;1.47;1.20;;;21.10;99.90;;;;;;5019150;28;20829;-63
2023/08/07 11:06:23;;;;;;;0.90;0.90;;;21.10;99.90;;;;;;5033129;28;20563;-63
2023/08/07 11:08:50;;;;;;;2.23;1.17;;;21.10;99.90;;;;;;5033345;28;20441;-64
2023/08/07 11:11:18;;;;;;;1.20;1.10;;;21.10;99.90;;;;;;5019567;28;20498;-63
2023/08/07 11:13:45;;;;;;;2.93;1.27;;;21.10;99.90;;;;;;4997629;28;20478;-62
2023/08/07 11:16:12;;;;;;;1.13;1.03;;;21.10;99.90;;;;;;5013527;28;20974;-64
2023/08/07 11:18:41;;;;;;;1.60;1.10;;;21.10;99.90;;;;;;5013289;28;20470;-63
2023/08/07 11:21:08;;;;;;;2.90;1.23;;;21.10;99.90;;;;;;5013068;28;20617;-64
2023/08/07 11:23:36;;;;;;;2.63;2.03;;;21.10;99.90;;;;;;5013150;28;20461;-63
2023/08/07 11:26:03;;;;;;;3.03;1.70;;;21.10;99.90;;;;;;5013155;28;20478;-63
2023/08/07 11:28:30;;;;;;;1.00;1.00;;;21.10;99.90;;;;;;5012921;28;20453;-64
2023/08/07 11:30:58;;;;;;;2.93;1.33;;;21.10;99.90;;;;;;5012994;28;20547;-63
2023/08/07 11:33:25;;;;;;;1.37;1.20;;;21.10;99.90;;;;;;5012632;28;20782;-64
2023/08/07 11:35:54;;;;;;;1.80;1.30;;;21.10;99.90;;;;;;5012987;28;20438;-63
2023/08/07 11:38:31;;;;;;;1.23;1.13;;;21.10;99.90;;;;;;5012791;28;20846;-63
2023/08/07 11:40:59;;;;;;;1.90;1.53;;;21.10;99.90;;;;;;5012768;28;20876;-63
2023/08/07 11:43:29;;;;;;;1.53;1.00;;;21.10;99.90;;;;;;5012802;28;20446;-63
2023/08/07 11:45:57;;;;;;;1.23;1.10;;;21.10;99.90;;;;;;5012775;28;20480;-64
2023/08/07 11:48:26;;;;;;;2.43;1.90;;;21.10;99.90;;;;;;5012850;28;20477;-64
2023/08/07 11:50:55;;;;;;;1.00;1.00;;;21.10;99.90;;;;;;5012898;28;20983;-63
2023/08/07 11:53:22;;;;;;;1.20;1.10;;;21.10;99.90;;;;;;5012838;28;20477;-63
2023/08/07 11:55:54;;;;;;;1.73;1.20;;;21.10;99.70;;;;;;5012605;28;20481;-63
2023/08/07 11:58:21;;;;;;;1.67;1.40;;;21.10;99.60;;;;;;5012524;28;20508;-63
2023/08/07 12:00:48;;;;;;;1.33;1.00;;;21.10;99.60;;;;;;5012322;28;20621;-63
2023/08/07 12:03:28;;;;;;;1.40;1.30;;;21.10;99.40;;;;;;5012707;28;20874;-64
2023/08/07 12:05:57;;;;;;;1.33;1.30;;;21.10;99.40;;;;;;5012523;28;20941;-64
2023/08/07 12:08:24;;;;;;;1.33;0.90;;;21.10;99.30;;;;;;5012483;28;20886;-64
2023/08/07 12:10:52;;;;;;;1.77;1.00;;;21.10;99.20;;;;;;5012574;28;20860;-64
2023/08/07 12:13:22;;;;;;;1.53;1.43;;;21.10;99.10;;;;;;5012599;28;20870;-64
2023/08/07 12:15:53;;;;;;;1.70;1.60;;;21.20;99.00;;;;;;4996895;28;21001;-64
2023/08/07 12:18:20;;;;;;;1.30;1.20;;;21.20;99.00;;;;;;5012361;28;20821;-63
2023/08/07 12:20:47;;;;;;;1.53;1.20;;;21.20;98.90;;;;;;4996290;28;20463;-64
2023/08/07 12:23:17;;;;;;;1.13;1.03;;;21.20;98.70;;;;;;5012257;28;20480;-63
2023/08/07 12:25:44;;;;;;;1.30;1.20;;;21.20;98.70;;;;;;5012100;28;20997;-63
2023/08/07 12:28:11;;;;;;;1.90;1.10;;;21.20;98.60;;;;;;5012171;28;20470;-64
2023/08/07 12:30:39;;;;;;;1.33;1.33;;;21.20;98.50;;;;;;5011977;28;20506;-63
2023/08/07 12:33:07;;;;;;;1.53;1.00;;;21.20;98.30;;;;;;5012067;28;20474;-64
2023/08/07 12:35:34;;;;;;;1.13;1.13;;;21.20;98.30;;;;;;5011925;28;20464;-63
2023/08/07 12:38:02;;;;;;;5.03;1.20;;;21.20;98.10;;;;;;5012201;28;20438;-64
2023/08/07 12:40:31;;;;;;;1.70;1.10;;;21.20;98.20;;;;;;5011802;28;20468;-63
2023/08/07 12:42:59;;;;;;;1.40;1.30;;;21.20;97.80;;;;;;5012099;28;20454;-63
2023/08/07 12:45:26;;;;;;;2.43;1.90;;;21.20;97.70;;;;;;5011160;28;20513;-64
2023/08/07 12:47:53;;;;;;;1.10;1.10;;;21.20;97.50;;;;;;5011977;28;20515;-64